sensor_id;sensor_type;location;lat;lon;timestamp;temperature;humidity
11246;DHT22;59870;50.106;8.580;2023-03-01T00:01:40;5.00;65.20
11246;DHT22;59870;50.106;8.580;2023-03-01T00:04:08;5.00;66.00
11246;DHT22;59870;50.106;8.580;2023-03-01T00:06:36;5.00;65.60
11246;DHT22;59870;50.106;8.580;2023-03-01T00:09:04;5.00;65.70
11246;DHT22;59870;50.106;8.580;2023-03-01T00:11:33;4.90;66.00
11246;DHT22;59870;50.106;8.580;2023-03-01T00:14:02;4.90;65.90
11246;DHT22;59870;50.106;8.580;2023-03-01T00:16:40;4.90;66.00
11246;DHT22;59870;50.106;8.580;2023-03-01T00:19:11;4.90;66.10
11246;DHT22;59870;50.106;8.580;2023-03-01T00:21:39;4.90;65.90
11246;DHT22;59870;50.106;8.580;2023-03-01T00:24:08;4.90;65.80
11246;DHT22;59870;50.106;8.580;2023-03-01T00:26:36;4.90;66.10
11246;DHT22;59870;50.106;8.580;2023-03-01T00:29:03;4.90;66.00
11246;DHT22;59870;50.106;8.580;2023-03-01T00:31:32;4.90;66.30
11246;DHT22;59870;50.106;8.580;2023-03-01T00:34:02;4.80;66.50
11246;DHT22;59870;50.106;8.580;2023-03-01T00:36:34;4.80;66.40
11246;DHT22;59870;50.106;8.580;2023-03-01T00:39:03;4.80;66.40
11246;DHT22;59870;50.106;8.580;2023-03-01T00:41:31;5.30;66.80
11246;DHT22;59870;50.106;8.580;2023-03-01T00:44:02;4.70;66.40
11246;DHT22;59870;50.106;8.580;2023-03-01T00:46:29;4.80;66.60
11246;DHT22;59870;50.106;8.580;2023-03-01T00:49:02;4.80;66.60
11246;DHT22;59870;50.106;8.580;2023-03-01T00:51:31;4.80;66.10
11246;DHT22;59870;50.106;8.580;2023-03-01T00:54:01;4.80;65.90
11246;DHT22;59870;50.106;8.580;2023-03-01T00:56:30;4.80;67.00
11246;DHT22;59870;50.106;8.580;2023-03-01T00:58:58;4.80;66.50
11246;DHT22;59870;50.106;8.580;2023-03-01T01:01:28;4.80;66.20
11246;DHT22;59870;50.106;8.580;2023-03-01T01:04:02;4.80;66.80
11246;DHT22;59870;50.106;8.580;2023-03-01T01:06:46;4.80;67.00
11246;DHT22;59870;50.106;8.580;2023-03-01T01:09:16;4.80;66.30
11246;DHT22;59870;50.106;8.580;2023-03-01T01:11:46;4.80;67.30
11246;DHT22;59870;50.106;8.580;2023-03-01T01:14:15;4.70;67.40
11246;DHT22;59870;50.106;8.580;2023-03-01T01:16:43;4.70;67.40
11246;DHT22;59870;50.106;8.580;2023-03-01T01:19:11;4.70;67.20
11246;DHT22;59870;50.106;8.580;2023-03-01T01:21:40;4.70;67.60
11246;DHT22;59870;50.106;8.580;2023-03-01T01:24:10;4.60;67.70
11246;DHT22;59870;50.106;8.580;2023-03-01T01:26:38;4.60;67.60
11246;DHT22;59870;50.106;8.580;2023-03-01T01:29:06;4.60;67.70
11246;DHT22;59870;50.106;8.580;2023-03-01T01:31:34;4.60;67.80
11246;DHT22;59870;50.106;8.580;2023-03-01T01:34:04;4.60;68.10
11246;DHT22;59870;50.106;8.580;2023-03-01T01:36:32;4.70;68.80
11246;DHT22;59870;50.106;8.580;2023-03-01T01:38:59;4.70;67.80
11246;DHT22;59870;50.106;8.580;2023-03-01T01:41:28;4.70;67.90
11246;DHT22;59870;50.106;8.580;2023-03-01T01:44:19;4.70;67.80
11246;DHT22;59870;50.106;8.580;2023-03-01T01:47:20;4.60;67.90
11246;DHT22;59870;50.106;8.580;2023-03-01T01:49:51;4.60;68.00
11246;DHT22;59870;50.106;8.580;2023-03-01T01:52:22;4.60;68.20
11246;DHT22;59870;50.106;8.580;2023-03-01T01:57:45;4.60;68.40
11246;DHT22;59870;50.106;8.580;2023-03-01T02:00:20;4.60;68.00
11246;DHT22;59870;50.106;8.580;2023-03-01T02:02:51;4.60;68.10
11246;DHT22;59870;50.106;8.580;2023-03-01T02:07:57;4.60;67.80
11246;DHT22;59870;50.106;8.580;2023-03-01T02:10:25;4.60;67.80
11246;DHT22;59870;50.106;8.580;2023-03-01T02:12:55;4.60;67.90
11246;DHT22;59870;50.106;8.580;2023-03-01T02:15:23;4.60;68.10
11246;DHT22;59870;50.106;8.580;2023-03-01T02:17:52;4.60;68.20
11246;DHT22;59870;50.106;8.580;2023-03-01T02:20:26;4.60;68.10
11246;DHT22;59870;50.106;8.580;2023-03-01T02:22:54;4.70;68.30
11246;DHT22;59870;50.106;8.580;2023-03-01T02:25:35;4.60;68.20
11246;DHT22;59870;50.106;8.580;2023-03-01T02:30:35;4.60;68.10
11246;DHT22;59870;50.106;8.580;2023-03-01T02:33:04;4.60;68.10
11246;DHT22;59870;50.106;8.580;2023-03-01T02:35:35;4.60;68.20
11246;DHT22;59870;50.106;8.580;2023-03-01T02:38:07;4.60;68.20
11246;DHT22;59870;50.106;8.580;2023-03-01T02:40:38;4.60;68.30
11246;DHT22;59870;50.106;8.580;2023-03-01T02:43:08;4.60;68.20
11246;DHT22;59870;50.106;8.580;2023-03-01T02:45:37;4.50;68.20
11246;DHT22;59870;50.106;8.580;2023-03-01T02:48:05;4.50;68.50
11246;DHT22;59870;50.106;8.580;2023-03-01T02:50:53;4.50;68.00
11246;DHT22;59870;50.106;8.580;2023-03-01T02:56:16;4.50;68.60
11246;DHT22;59870;50.106;8.580;2023-03-01T02:58:44;4.50;68.20
11246;DHT22;59870;50.106;8.580;2023-03-01T03:01:16;4.50;68.90
11246;DHT22;59870;50.106;8.580;2023-03-01T03:03:44;4.50;68.00
11246;DHT22;59870;50.106;8.580;2023-03-01T03:06:11;4.50;68.70
11246;DHT22;59870;50.106;8.580;2023-03-01T03:08:39;4.50;68.60
11246;DHT22;59870;50.106;8.580;2023-03-01T03:11:06;4.50;68.80
11246;DHT22;59870;50.106;8.580;2023-03-01T03:13:34;4.50;68.00
11246;DHT22;59870;50.106;8.580;2023-03-01T03:16:02;4.50;68.00
11246;DHT22;59870;50.106;8.580;2023-03-01T03:18:31;4.50;68.70
11246;DHT22;59870;50.106;8.580;2023-03-01T03:20:58;4.50;68.70
11246;DHT22;59870;50.106;8.580;2023-03-01T03:23:25;4.50;68.80
11246;DHT22;59870;50.106;8.580;2023-03-01T03:25:53;4.40;68.80
11246;DHT22;59870;50.106;8.580;2023-03-01T03:28:20;4.40;69.00
11246;DHT22;59870;50.106;8.580;2023-03-01T03:30:47;4.40;69.00
11246;DHT22;59870;50.106;8.580;2023-03-01T03:33:16;4.40;69.30
11246;DHT22;59870;50.106;8.580;2023-03-01T03:35:46;4.40;69.40
11246;DHT22;59870;50.106;8.580;2023-03-01T03:38:16;4.40;69.30
11246;DHT22;59870;50.106;8.580;2023-03-01T03:40:46;4.40;69.40
11246;DHT22;59870;50.106;8.580;2023-03-01T03:43:19;4.30;68.20
11246;DHT22;59870;50.106;8.580;2023-03-01T03:45:49;4.30;69.30
11246;DHT22;59870;50.106;8.580;2023-03-01T03:48:18;4.30;69.40
11246;DHT22;59870;50.106;8.580;2023-03-01T03:50:51;4.30;69.50
11246;DHT22;59870;50.106;8.580;2023-03-01T03:53:20;4.20;69.50
11246;DHT22;59870;50.106;8.580;2023-03-01T03:55:48;4.30;68.80
11246;DHT22;59870;50.106;8.580;2023-03-01T03:58:20;4.20;69.70
11246;DHT22;59870;50.106;8.580;2023-03-01T04:00:50;4.20;69.80
11246;DHT22;59870;50.106;8.580;2023-03-01T04:03:19;4.20;70.00
11246;DHT22;59870;50.106;8.580;2023-03-01T04:05:47;4.10;69.90
11246;DHT22;59870;50.106;8.580;2023-03-01T04:08:14;4.00;70.10
11246;DHT22;59870;50.106;8.580;2023-03-01T04:10:44;4.00;69.60
11246;DHT22;59870;50.106;8.580;2023-03-01T04:13:15;4.00;70.70
11246;DHT22;59870;50.106;8.580;2023-03-01T04:15:43;3.90;70.40
11246;DHT22;59870;50.106;8.580;2023-03-01T04:18:15;3.90;69.70
11246;DHT22;59870;50.106;8.580;2023-03-01T04:20:43;3.80;70.80
11246;DHT22;59870;50.106;8.580;2023-03-01T04:23:17;3.90;71.10
11246;DHT22;59870;50.106;8.580;2023-03-01T04:25:55;3.90;70.90
11246;DHT22;59870;50.106;8.580;2023-03-01T04:28:24;3.80;71.20
11246;DHT22;59870;50.106;8.580;2023-03-01T04:30:54;3.70;71.20
11246;DHT22;59870;50.106;8.580;2023-03-01T04:33:22;3.60;70.70
11246;DHT22;59870;50.106;8.580;2023-03-01T04:35:50;3.60;71.80
11246;DHT22;59870;50.106;8.580;2023-03-01T04:38:19;3.70;71.70
11246;DHT22;59870;50.106;8.580;2023-03-01T04:40:48;3.70;71.40
11246;DHT22;59870;50.106;8.580;2023-03-01T04:43:15;3.20;71.10
11246;DHT22;59870;50.106;8.580;2023-03-01T04:45:43;3.70;70.70
11246;DHT22;59870;50.106;8.580;2023-03-01T04:48:10;3.70;70.70
11246;DHT22;59870;50.106;8.580;2023-03-01T04:50:37;3.80;71.00
11246;DHT22;59870;50.106;8.580;2023-03-01T04:53:05;3.80;71.30
11246;DHT22;59870;50.106;8.580;2023-03-01T04:55:33;3.70;71.20
11246;DHT22;59870;50.106;8.580;2023-03-01T04:58:01;3.70;70.30
11246;DHT22;59870;50.106;8.580;2023-03-01T05:00:28;3.70;71.30
11246;DHT22;59870;50.106;8.580;2023-03-01T05:02:57;3.70;71.20
11246;DHT22;59870;50.106;8.580;2023-03-01T05:05:28;3.70;71.40
11246;DHT22;59870;50.106;8.580;2023-03-01T05:07:58;3.70;71.30
11246;DHT22;59870;50.106;8.580;2023-03-01T05:10:28;3.80;71.90
11246;DHT22;59870;50.106;8.580;2023-03-01T05:12:57;3.70;71.20
11246;DHT22;59870;50.106;8.580;2023-03-01T05:15:26;3.70;71.30
11246;DHT22;59870;50.106;8.580;2023-03-01T05:17:58;3.70;71.40
11246;DHT22;59870;50.106;8.580;2023-03-01T05:20:30;3.70;71.40
11246;DHT22;59870;50.106;8.580;2023-03-01T05:22:59;3.70;71.20
11246;DHT22;59870;50.106;8.580;2023-03-01T05:25:27;3.70;71.30
11246;DHT22;59870;50.106;8.580;2023-03-01T05:27:54;3.70;71.20
11246;DHT22;59870;50.106;8.580;2023-03-01T05:30:21;3.70;70.20
11246;DHT22;59870;50.106;8.580;2023-03-01T05:32:50;3.70;71.00
11246;DHT22;59870;50.106;8.580;2023-03-01T05:35:23;3.80;71.00
11246;DHT22;59870;50.106;8.580;2023-03-01T05:37:51;3.80;70.80
11246;DHT22;59870;50.106;8.580;2023-03-01T05:40:20;3.80;69.80
11246;DHT22;59870;50.106;8.580;2023-03-01T05:42:53;3.90;70.80
11246;DHT22;59870;50.106;8.580;2023-03-01T05:45:24;3.90;70.50
11246;DHT22;59870;50.106;8.580;2023-03-01T05:47:53;3.90;70.60
11246;DHT22;59870;50.106;8.580;2023-03-01T05:50:25;3.90;70.50
11246;DHT22;59870;50.106;8.580;2023-03-01T05:53:02;3.80;70.50
11246;DHT22;59870;50.106;8.580;2023-03-01T05:55:30;3.90;70.70
11246;DHT22;59870;50.106;8.580;2023-03-01T05:58:00;3.90;70.60
11246;DHT22;59870;50.106;8.580;2023-03-01T06:00:28;3.80;70.90
11246;DHT22;59870;50.106;8.580;2023-03-01T06:02:58;3.80;70.90
11246;DHT22;59870;50.106;8.580;2023-03-01T06:05:25;3.70;71.20
11246;DHT22;59870;50.106;8.580;2023-03-01T06:07:53;3.70;71.10
11246;DHT22;59870;50.106;8.580;2023-03-01T06:10:22;3.70;71.40
11246;DHT22;59870;50.106;8.580;2023-03-01T06:12:49;3.60;71.50
11246;DHT22;59870;50.106;8.580;2023-03-01T06:15:17;3.60;70.90
11246;DHT22;59870;50.106;8.580;2023-03-01T06:17:46;3.50;70.80
11246;DHT22;59870;50.106;8.580;2023-03-01T06:20:17;3.60;71.80
11246;DHT22;59870;50.106;8.580;2023-03-01T06:22:45;3.60;71.90
11246;DHT22;59870;50.106;8.580;2023-03-01T06:25:16;3.50;72.00
11246;DHT22;59870;50.106;8.580;2023-03-01T06:27:44;3.50;71.90
11246;DHT22;59870;50.106;8.580;2023-03-01T06:30:14;3.60;71.70
11246;DHT22;59870;50.106;8.580;2023-03-01T06:32:42;3.60;71.70
11246;DHT22;59870;50.106;8.580;2023-03-01T06:35:11;3.60;71.70
11246;DHT22;59870;50.106;8.580;2023-03-01T06:37:40;3.60;72.00
11246;DHT22;59870;50.106;8.580;2023-03-01T06:40:08;3.50;72.10
11246;DHT22;59870;50.106;8.580;2023-03-01T06:42:40;3.50;72.30
11246;DHT22;59870;50.106;8.580;2023-03-01T06:45:08;3.50;72.80
11246;DHT22;59870;50.106;8.580;2023-03-01T06:47:35;3.50;72.40
11246;DHT22;59870;50.106;8.580;2023-03-01T06:50:03;3.50;72.20
11246;DHT22;59870;50.106;8.580;2023-03-01T06:52:31;3.60;72.30
11246;DHT22;59870;50.106;8.580;2023-03-01T06:54:58;3.60;71.60
11246;DHT22;59870;50.106;8.580;2023-03-01T06:57:26;3.60;72.00
11246;DHT22;59870;50.106;8.580;2023-03-01T06:59:54;3.70;72.00
11246;DHT22;59870;50.106;8.580;2023-03-01T07:02:22;3.70;71.30
11246;DHT22;59870;50.106;8.580;2023-03-01T07:04:50;3.80;72.10
11246;DHT22;59870;50.106;8.580;2023-03-01T07:07:18;3.80;71.90
11246;DHT22;59870;50.106;8.580;2023-03-01T07:09:46;3.90;71.80
11246;DHT22;59870;50.106;8.580;2023-03-01T07:12:14;3.90;71.90
11246;DHT22;59870;50.106;8.580;2023-03-01T07:14:43;4.00;71.60
11246;DHT22;59870;50.106;8.580;2023-03-01T07:17:10;4.00;71.60
11246;DHT22;59870;50.106;8.580;2023-03-01T07:19:37;3.60;69.90
11246;DHT22;59870;50.106;8.580;2023-03-01T07:22:05;4.20;71.10
11246;DHT22;59870;50.106;8.580;2023-03-01T07:24:35;4.20;71.30
11246;DHT22;59870;50.106;8.580;2023-03-01T07:27:03;4.20;71.10
11246;DHT22;59870;50.106;8.580;2023-03-01T07:29:30;4.30;71.20
11246;DHT22;59870;50.106;8.580;2023-03-01T07:31:58;4.30;70.60
11246;DHT22;59870;50.106;8.580;2023-03-01T07:34:25;4.40;70.80
11246;DHT22;59870;50.106;8.580;2023-03-01T07:36:53;4.40;70.40
11246;DHT22;59870;50.106;8.580;2023-03-01T07:39:20;4.40;70.10
11246;DHT22;59870;50.106;8.580;2023-03-01T07:41:50;4.40;71.00
11246;DHT22;59870;50.106;8.580;2023-03-01T07:44:21;4.40;71.10
11246;DHT22;59870;50.106;8.580;2023-03-01T07:46:48;4.40;70.90
11246;DHT22;59870;50.106;8.580;2023-03-01T07:49:16;4.40;70.90
11246;DHT22;59870;50.106;8.580;2023-03-01T07:51:43;4.70;71.00
11246;DHT22;59870;50.106;8.580;2023-03-01T07:54:10;4.50;70.10
11246;DHT22;59870;50.106;8.580;2023-03-01T07:56:38;4.50;70.80
11246;DHT22;59870;50.106;8.580;2023-03-01T07:59:05;4.50;70.80
11246;DHT22;59870;50.106;8.580;2023-03-01T08:01:32;4.50;71.00
11246;DHT22;59870;50.106;8.580;2023-03-01T08:04:00;4.50;70.90
11246;DHT22;59870;50.106;8.580;2023-03-01T08:06:28;4.40;71.10
11246;DHT22;59870;50.106;8.580;2023-03-01T08:08:56;4.40;70.30
11246;DHT22;59870;50.106;8.580;2023-03-01T08:11:25;4.50;71.20
11246;DHT22;59870;50.106;8.580;2023-03-01T08:13:55;4.60;71.00
11246;DHT22;59870;50.106;8.580;2023-03-01T08:16:23;4.60;70.90
11246;DHT22;59870;50.106;8.580;2023-03-01T08:18:51;4.60;70.90
11246;DHT22;59870;50.106;8.580;2023-03-01T08:21:18;4.50;70.70
11246;DHT22;59870;50.106;8.580;2023-03-01T08:23:46;4.60;71.10
11246;DHT22;59870;50.106;8.580;2023-03-01T08:26:16;4.70;70.50
11246;DHT22;59870;50.106;8.580;2023-03-01T08:28:46;4.80;71.60
11246;DHT22;59870;50.106;8.580;2023-03-01T08:33:49;5.20;69.80
11246;DHT22;59870;50.106;8.580;2023-03-01T08:36:26;5.20;69.10
11246;DHT22;59870;50.106;8.580;2023-03-01T08:38:54;5.40;69.60
11246;DHT22;59870;50.106;8.580;2023-03-01T08:41:21;5.50;68.60
11246;DHT22;59870;50.106;8.580;2023-03-01T08:43:50;5.70;69.30
11246;DHT22;59870;50.106;8.580;2023-03-01T08:46:17;6.00;68.70
11246;DHT22;59870;50.106;8.580;2023-03-01T08:48:44;6.20;66.60
11246;DHT22;59870;50.106;8.580;2023-03-01T08:51:14;6.40;66.50
11246;DHT22;59870;50.106;8.580;2023-03-01T08:53:43;6.60;66.10
11246;DHT22;59870;50.106;8.580;2023-03-01T08:56:11;6.80;65.90
11246;DHT22;59870;50.106;8.580;2023-03-01T08:58:39;6.90;65.20
11246;DHT22;59870;50.106;8.580;2023-03-01T09:01:08;7.10;63.80
11246;DHT22;59870;50.106;8.580;2023-03-01T09:03:36;7.30;64.00
11246;DHT22;59870;50.106;8.580;2023-03-01T09:06:05;7.60;62.90
11246;DHT22;59870;50.106;8.580;2023-03-01T09:08:38;7.80;62.50
11246;DHT22;59870;50.106;8.580;2023-03-01T09:11:07;7.90;61.30
11246;DHT22;59870;50.106;8.580;2023-03-01T09:13:35;8.20;61.80
11246;DHT22;59870;50.106;8.580;2023-03-01T09:16:08;8.40;60.30
11246;DHT22;59870;50.106;8.580;2023-03-01T09:18:36;8.50;60.10
11246;DHT22;59870;50.106;8.580;2023-03-01T09:21:14;8.60;59.20
11246;DHT22;59870;50.106;8.580;2023-03-01T09:23:44;8.80;59.80
11246;DHT22;59870;50.106;8.580;2023-03-01T09:26:18;9.00;59.00
11246;DHT22;59870;50.106;8.580;2023-03-01T09:28:46;9.00;58.90
11246;DHT22;59870;50.106;8.580;2023-03-01T09:31:17;9.30;59.20
11246;DHT22;59870;50.106;8.580;2023-03-01T09:33:48;9.40;58.70
11246;DHT22;59870;50.106;8.580;2023-03-01T09:36:20;9.60;58.10
11246;DHT22;59870;50.106;8.580;2023-03-01T09:38:49;9.80;58.20
11246;DHT22;59870;50.106;8.580;2023-03-01T09:46:59;10.00;56.70
11246;DHT22;59870;50.106;8.580;2023-03-01T09:49:28;10.20;55.50
11246;DHT22;59870;50.106;8.580;2023-03-01T09:52:00;10.10;55.60
11246;DHT22;59870;50.106;8.580;2023-03-01T09:54:30;10.20;55.20
11246;DHT22;59870;50.106;8.580;2023-03-01T09:59:56;10.20;55.30
11246;DHT22;59870;50.106;8.580;2023-03-01T10:02:56;10.40;55.30
11246;DHT22;59870;50.106;8.580;2023-03-01T10:10:40;10.50;53.60
11246;DHT22;59870;50.106;8.580;2023-03-01T10:16:16;10.30;54.60
11246;DHT22;59870;50.106;8.580;2023-03-01T10:18:47;10.00;54.80
11246;DHT22;59870;50.106;8.580;2023-03-01T10:21:19;10.00;55.00
11246;DHT22;59870;50.106;8.580;2023-03-01T10:23:50;9.80;55.40
11246;DHT22;59870;50.106;8.580;2023-03-01T10:26:34;9.70;56.10
11246;DHT22;59870;50.106;8.580;2023-03-01T10:29:10;9.40;55.90
11246;DHT22;59870;50.106;8.580;2023-03-01T10:31:47;9.30;56.50
11246;DHT22;59870;50.106;8.580;2023-03-01T10:34:28;9.30;57.50
11246;DHT22;59870;50.106;8.580;2023-03-01T10:37:01;9.20;57.60
11246;DHT22;59870;50.106;8.580;2023-03-01T10:39:28;9.20;57.00
11246;DHT22;59870;50.106;8.580;2023-03-01T10:42:05;9.10;57.50
11246;DHT22;59870;50.106;8.580;2023-03-01T10:44:50;9.10;57.70
11246;DHT22;59870;50.106;8.580;2023-03-01T10:50:45;8.40;57.70
11246;DHT22;59870;50.106;8.580;2023-03-01T10:53:50;8.80;58.10
11246;DHT22;59870;50.106;8.580;2023-03-01T10:56:25;8.80;58.20
11246;DHT22;59870;50.106;8.580;2023-03-01T10:59:36;8.70;58.40
11246;DHT22;59870;50.106;8.580;2023-03-01T11:02:26;8.60;58.50
11246;DHT22;59870;50.106;8.580;2023-03-01T11:05:13;8.50;58.80
11246;DHT22;59870;50.106;8.580;2023-03-01T11:07:54;8.50;59.30
11246;DHT22;59870;50.106;8.580;2023-03-01T11:10:27;8.50;59.40
11246;DHT22;59870;50.106;8.580;2023-03-01T11:14:57;8.50;59.10
11246;DHT22;59870;50.106;8.580;2023-03-01T11:17:31;8.60;57.80
11246;DHT22;59870;50.106;8.580;2023-03-01T11:20:30;8.60;58.60
11246;DHT22;59870;50.106;8.580;2023-03-01T11:23:37;8.60;59.10
11246;DHT22;59870;50.106;8.580;2023-03-01T11:26:41;8.60;58.90
11246;DHT22;59870;50.106;8.580;2023-03-01T11:35:27;8.50;59.30
11246;DHT22;59870;50.106;8.580;2023-03-01T11:40:37;8.60;58.80
11246;DHT22;59870;50.106;8.580;2023-03-01T11:51:25;8.60;59.30
11246;DHT22;59870;50.106;8.580;2023-03-01T11:54:12;8.70;59.30
11246;DHT22;59870;50.106;8.580;2023-03-01T11:56:48;8.70;58.70
11246;DHT22;59870;50.106;8.580;2023-03-01T12:08:14;8.90;58.90
11246;DHT22;59870;50.106;8.580;2023-03-01T12:14:19;9.10;58.20
11246;DHT22;59870;50.106;8.580;2023-03-01T12:17:23;9.30;58.00
11246;DHT22;59870;50.106;8.580;2023-03-01T12:20:02;9.40;57.50
11246;DHT22;59870;50.106;8.580;2023-03-01T12:22:56;9.40;57.50
11246;DHT22;59870;50.106;8.580;2023-03-01T12:26:20;9.40;57.40
11246;DHT22;59870;50.106;8.580;2023-03-01T12:29:20;9.40;57.00
11246;DHT22;59870;50.106;8.580;2023-03-01T12:32:15;9.40;55.80
11246;DHT22;59870;50.106;8.580;2023-03-01T12:38:10;9.40;55.40
11246;DHT22;59870;50.106;8.580;2023-03-01T12:45:59;9.60;55.10
11246;DHT22;59870;50.106;8.580;2023-03-01T12:48:42;9.70;55.00
11246;DHT22;59870;50.106;8.580;2023-03-01T12:51:24;9.70;54.20
11246;DHT22;59870;50.106;8.580;2023-03-01T12:53:55;9.80;54.30
11246;DHT22;59870;50.106;8.580;2023-03-01T12:56:25;9.80;54.00
11246;DHT22;59870;50.106;8.580;2023-03-01T12:58:56;9.90;53.50
11246;DHT22;59870;50.106;8.580;2023-03-01T13:01:43;9.80;52.70
11246;DHT22;59870;50.106;8.580;2023-03-01T13:07:53;9.80;53.50
11246;DHT22;59870;50.106;8.580;2023-03-01T13:10:31;9.80;53.60
11246;DHT22;59870;50.106;8.580;2023-03-01T13:13:13;9.90;53.10
11246;DHT22;59870;50.106;8.580;2023-03-01T13:15:41;9.90;54.10
11246;DHT22;59870;50.106;8.580;2023-03-01T13:23:39;9.90;53.90
11246;DHT22;59870;50.106;8.580;2023-03-01T13:28:46;9.80;54.10
11246;DHT22;59870;50.106;8.580;2023-03-01T13:33:52;9.80;54.20
11246;DHT22;59870;50.106;8.580;2023-03-01T13:44:16;10.00;53.30
11246;DHT22;59870;50.106;8.580;2023-03-01T13:46:50;10.00;52.70
11246;DHT22;59870;50.106;8.580;2023-03-01T13:49:20;10.10;52.70
11246;DHT22;59870;50.106;8.580;2023-03-01T13:51:51;10.00;51.80
11246;DHT22;59870;50.106;8.580;2023-03-01T13:54:29;10.40;53.00
11246;DHT22;59870;50.106;8.580;2023-03-01T13:57:01;10.00;53.50
11246;DHT22;59870;50.106;8.580;2023-03-01T13:59:29;10.00;53.60
11246;DHT22;59870;50.106;8.580;2023-03-01T14:02:00;10.10;53.10
11246;DHT22;59870;50.106;8.580;2023-03-01T14:04:30;10.20;53.30
11246;DHT22;59870;50.106;8.580;2023-03-01T14:09:45;10.30;52.90
11246;DHT22;59870;50.106;8.580;2023-03-01T14:15:27;10.20;52.10
11246;DHT22;59870;50.106;8.580;2023-03-01T14:18:10;10.20;52.60
11246;DHT22;59870;50.106;8.580;2023-03-01T14:20:44;10.10;53.30
11246;DHT22;59870;50.106;8.580;2023-03-01T14:23:23;10.10;52.70
11246;DHT22;59870;50.106;8.580;2023-03-01T14:25:53;10.00;52.60
11246;DHT22;59870;50.106;8.580;2023-03-01T14:28:24;9.90;53.70
11246;DHT22;59870;50.106;8.580;2023-03-01T14:30:57;10.00;52.70
11246;DHT22;59870;50.106;8.580;2023-03-01T14:35:57;9.80;53.10
11246;DHT22;59870;50.106;8.580;2023-03-01T14:38:42;9.90;53.50
11246;DHT22;59870;50.106;8.580;2023-03-01T14:41:18;10.00;53.50
11246;DHT22;59870;50.106;8.580;2023-03-01T14:43:50;10.10;53.10
11246;DHT22;59870;50.106;8.580;2023-03-01T14:46:20;10.20;52.90
11246;DHT22;59870;50.106;8.580;2023-03-01T14:48:50;10.20;52.50
11246;DHT22;59870;50.106;8.580;2023-03-01T14:51:18;10.30;52.10
11246;DHT22;59870;50.106;8.580;2023-03-01T14:53:45;10.20;52.00
11246;DHT22;59870;50.106;8.580;2023-03-01T14:56:18;10.10;52.30
11246;DHT22;59870;50.106;8.580;2023-03-01T14:58:46;10.10;52.20
11246;DHT22;59870;50.106;8.580;2023-03-01T15:01:18;10.20;53.10
11246;DHT22;59870;50.106;8.580;2023-03-01T15:03:47;10.20;52.40
11246;DHT22;59870;50.106;8.580;2023-03-01T15:06:18;10.20;52.00
11246;DHT22;59870;50.106;8.580;2023-03-01T15:08:48;10.30;52.10
11246;DHT22;59870;50.106;8.580;2023-03-01T15:13:55;10.30;51.70
11246;DHT22;59870;50.106;8.580;2023-03-01T15:16:31;10.30;51.10
11246;DHT22;59870;50.106;8.580;2023-03-01T15:19:05;10.20;51.40
11246;DHT22;59870;50.106;8.580;2023-03-01T15:21:35;10.20;51.70
11246;DHT22;59870;50.106;8.580;2023-03-01T15:24:17;10.30;51.90
11246;DHT22;59870;50.106;8.580;2023-03-01T15:26:59;10.40;51.90
11246;DHT22;59870;50.106;8.580;2023-03-01T15:29:30;10.50;51.10
11246;DHT22;59870;50.106;8.580;2023-03-01T15:34:51;10.60;51.10
11246;DHT22;59870;50.106;8.580;2023-03-01T15:37:38;10.60;50.60
11246;DHT22;59870;50.106;8.580;2023-03-01T15:40:27;10.40;51.40
11246;DHT22;59870;50.106;8.580;2023-03-01T15:43:02;10.30;51.50
11246;DHT22;59870;50.106;8.580;2023-03-01T15:45:32;10.30;50.90
11246;DHT22;59870;50.106;8.580;2023-03-01T15:48:03;10.20;51.70
11246;DHT22;59870;50.106;8.580;2023-03-01T15:50:34;10.20;51.20
11246;DHT22;59870;50.106;8.580;2023-03-01T15:53:10;10.40;52.20
11246;DHT22;59870;50.106;8.580;2023-03-01T15:55:38;10.30;52.40
11246;DHT22;59870;50.106;8.580;2023-03-01T15:58:10;10.20;51.60
11246;DHT22;59870;50.106;8.580;2023-03-01T16:00:39;10.20;52.10
11246;DHT22;59870;50.106;8.580;2023-03-01T16:03:24;10.20;52.00
11246;DHT22;59870;50.106;8.580;2023-03-01T16:05:51;10.30;52.40
11246;DHT22;59870;50.106;8.580;2023-03-01T16:08:19;10.30;51.30
11246;DHT22;59870;50.106;8.580;2023-03-01T16:10:46;10.40;50.90
11246;DHT22;59870;50.106;8.580;2023-03-01T16:13:17;10.40;51.20
11246;DHT22;59870;50.106;8.580;2023-03-01T16:15:45;11.00;51.40
11246;DHT22;59870;50.106;8.580;2023-03-01T16:18:12;10.30;50.60
11246;DHT22;59870;50.106;8.580;2023-03-01T16:20:40;10.30;50.90
11246;DHT22;59870;50.106;8.580;2023-03-01T16:23:08;10.30;50.90
11246;DHT22;59870;50.106;8.580;2023-03-01T16:25:37;10.30;51.20
11246;DHT22;59870;50.106;8.580;2023-03-01T16:28:05;10.40;50.90
11246;DHT22;59870;50.106;8.580;2023-03-01T16:30:38;10.30;50.60
11246;DHT22;59870;50.106;8.580;2023-03-01T16:33:06;10.10;50.80
11246;DHT22;59870;50.106;8.580;2023-03-01T16:35:51;10.10;51.10
11246;DHT22;59870;50.106;8.580;2023-03-01T16:38:19;10.10;50.50
11246;DHT22;59870;50.106;8.580;2023-03-01T16:40:50;10.10;50.20
11246;DHT22;59870;50.106;8.580;2023-03-01T16:43:21;10.60;51.40
11246;DHT22;59870;50.106;8.580;2023-03-01T16:49:46;10.00;51.00
11246;DHT22;59870;50.106;8.580;2023-03-01T16:52:16;10.10;50.20
11246;DHT22;59870;50.106;8.580;2023-03-01T16:54:45;10.10;50.20
11246;DHT22;59870;50.106;8.580;2023-03-01T16:57:13;10.40;50.00
11246;DHT22;59870;50.106;8.580;2023-03-01T16:59:41;10.10;50.40
11246;DHT22;59870;50.106;8.580;2023-03-01T17:02:11;10.00;50.40
11246;DHT22;59870;50.106;8.580;2023-03-01T17:04:39;10.00;50.90
11246;DHT22;59870;50.106;8.580;2023-03-01T17:07:07;10.00;50.20
11246;DHT22;59870;50.106;8.580;2023-03-01T17:09:36;10.00;50.60
11246;DHT22;59870;50.106;8.580;2023-03-01T17:12:04;9.90;50.90
11246;DHT22;59870;50.106;8.580;2023-03-01T17:14:32;9.90;51.00
11246;DHT22;59870;50.106;8.580;2023-03-01T17:17:00;10.00;50.00
11246;DHT22;59870;50.106;8.580;2023-03-01T17:19:29;9.90;50.70
11246;DHT22;59870;50.106;8.580;2023-03-01T17:21:59;9.80;50.90
11246;DHT22;59870;50.106;8.580;2023-03-01T17:24:27;9.80;51.30
11246;DHT22;59870;50.106;8.580;2023-03-01T17:43:43;9.90;53.00
11246;DHT22;59870;50.106;8.580;2023-03-01T17:46:17;9.50;52.70
11246;DHT22;59870;50.106;8.580;2023-03-01T17:48:55;9.70;52.00
11246;DHT22;59870;50.106;8.580;2023-03-01T17:54:06;9.40;52.70
11246;DHT22;59870;50.106;8.580;2023-03-01T18:44:08;8.50;54.10
11246;DHT22;59870;50.106;8.580;2023-03-01T18:46:36;8.80;53.70
11246;DHT22;59870;50.106;8.580;2023-03-01T18:49:07;8.50;53.40
11246;DHT22;59870;50.106;8.580;2023-03-01T18:51:35;8.50;54.00
11246;DHT22;59870;50.106;8.580;2023-03-01T18:54:03;8.40;53.20
11246;DHT22;59870;50.106;8.580;2023-03-01T18:56:32;9.10;54.40
11246;DHT22;59870;50.106;8.580;2023-03-01T18:59:01;8.40;53.90
11246;DHT22;59870;50.106;8.580;2023-03-01T19:01:31;8.50;53.90
11246;DHT22;59870;50.106;8.580;2023-03-01T19:04:03;8.40;53.90
11246;DHT22;59870;50.106;8.580;2023-03-01T19:06:32;8.50;53.80
11246;DHT22;59870;50.106;8.580;2023-03-01T19:17:03;8.40;54.00
11246;DHT22;59870;50.106;8.580;2023-03-01T19:20:03;8.30;53.00